sensor_id;sensor_type;location;lat;lon;timestamp;pressure;altitude;pressure_sealevel;temperature;humidity
3590;BME280;1809;48.470;9.226;2024-02-26T00:02:04;-16384.56;;;7.73;100.00
3590;BME280;1809;48.470;9.226;2024-02-26T00:04:30;-16385.81;;;7.78;100.00
3590;BME280;1809;48.470;9.226;2024-02-26T00:06:55;-16384.56;;;7.73;100.00
3590;BME280;1809;48.470;9.226;2024-02-26T00:09:21;-16385.97;;;7.78;100.00
3590;BME280;1809;48.470;9.226;2024-02-26T00:11:46;-16386.94;;;7.82;100.00
3590;BME280;1809;48.470;9.226;2024-02-26T00:14:12;-16386.94;;;7.82;100.00
3590;BME280;1809;48.470;9.226;2024-02-26T00:16:40;-16387.78;;;7.85;100.00
3590;BME280;1809;48.470;9.226;2024-02-26T00:19:06;-16385.25;;;7.76;100.00
3590;BME280;1809;48.470;9.226;2024-02-26T00:21:31;-16382.44;;;7.66;100.00
3590;BME280;1809;48.470;9.226;2024-02-26T00:23:56;-16382.16;;;7.65;100.00
3590;BME280;1809;48.470;9.226;2024-02-26T00:26:22;-16384.28;;;7.72;100.00
3590;BME280;1809;48.470;9.226;2024-02-26T00:28:47;-16384.97;;;7.75;100.00
3590;BME280;1809;48.470;9.226;2024-02-26T00:31:13;-16383.84;;;7.71;100.00
3590;BME280;1809;48.470;9.226;2024-02-26T00:33:38;-16383.28;;;7.69;100.00
3590;BME280;1809;48.470;9.226;2024-02-26T00:36:04;-16381.59;;;7.63;100.00
3590;BME280;1809;48.470;9.226;2024-02-26T00:38:29;-16382.44;;;7.66;100.00
3590;BME280;1809;48.470;9.226;2024-02-26T00:40:54;-16381.31;;;7.62;100.00
3590;BME280;1809;48.470;9.226;2024-02-26T00:43:20;-16382.72;;;7.67;100.00
3590;BME280;1809;48.470;9.226;2024-02-26T00:45:45;-16381.88;;;7.64;100.00
3590;BME280;1809;48.470;9.226;2024-02-26T00:48:12;-16381.88;;;7.64;100.00
3590;BME280;1809;48.470;9.226;2024-02-26T00:50:39;-16382.72;;;7.67;100.00
3590;BME280;1809;48.470;9.226;2024-02-26T00:53:05;-16381.31;;;7.62;100.00
3590;BME280;1809;48.470;9.226;2024-02-26T00:55:30;-16381.03;;;7.61;100.00
3590;BME280;1809;48.470;9.226;2024-02-26T00:57:55;-16381.31;;;7.62;100.00
3590;BME280;1809;48.470;9.226;2024-02-26T01:00:21;-16380.19;;;7.57;100.00
3590;BME280;1809;48.470;9.226;2024-02-26T01:02:46;-16379.22;;;7.54;100.00
3590;BME280;1809;48.470;9.226;2024-02-26T01:05:12;-16380.34;;;7.58;100.00
3590;BME280;1809;48.470;9.226;2024-02-26T01:07:38;-16377.94;;;7.49;100.00
3590;BME280;1809;48.470;9.226;2024-02-26T01:10:05;-16378.66;;;7.52;100.00
3590;BME280;1809;48.470;9.226;2024-02-26T01:12:32;-16379.91;;;7.56;100.00
3590;BME280;1809;48.470;9.226;2024-02-26T01:14:57;-16380.19;;;7.57;100.00
3590;BME280;1809;48.470;9.226;2024-02-26T01:17:22;-16379.50;;;7.55;100.00
3590;BME280;1809;48.470;9.226;2024-02-26T01:19:48;-16379.91;;;7.56;100.00
3590;BME280;1809;48.470;9.226;2024-02-26T01:22:13;-16380.47;;;7.58;100.00
3590;BME280;1809;48.470;9.226;2024-02-26T01:24:38;-16380.75;;;7.60;100.00
3590;BME280;1809;48.470;9.226;2024-02-26T01:27:04;-16383.84;;;7.71;100.00
3590;BME280;1809;48.470;9.226;2024-02-26T01:29:29;-16386.09;;;7.79;100.00
3590;BME280;1809;48.470;9.226;2024-02-26T01:31:54;-16384.84;;;7.74;100.00
3590;BME280;1809;48.470;9.226;2024-02-26T01:34:20;-16387.22;;;7.83;100.00
3590;BME280;1809;48.470;9.226;2024-02-26T01:36:45;-16387.22;;;7.83;100.00
3590;BME280;1809;48.470;9.226;2024-02-26T01:39:11;-16387.50;;;7.84;100.00
3590;BME280;1809;48.470;9.226;2024-02-26T01:41:38;-16389.47;;;7.91;100.00
3590;BME280;1809;48.470;9.226;2024-02-26T01:44:03;-16388.34;;;7.87;100.00
3590;BME280;1809;48.470;9.226;2024-02-26T01:46:30;-16389.47;;;7.91;100.00
3590;BME280;1809;48.470;9.226;2024-02-26T01:48:56;-16389.75;;;7.92;100.00
3590;BME280;1809;48.470;9.226;2024-02-26T01:51:22;-16387.22;;;7.83;100.00
3590;BME280;1809;48.470;9.226;2024-02-26T01:53:48;-16383.28;;;7.69;100.00
3590;BME280;1809;48.470;9.226;2024-02-26T01:56:15;-16386.09;;;7.79;100.00
3590;BME280;1809;48.470;9.226;2024-02-26T01:58:42;-16384.69;;;7.74;100.00
3590;BME280;1809;48.470;9.226;2024-02-26T02:01:08;-16385.13;;;7.75;100.00
3590;BME280;1809;48.470;9.226;2024-02-26T02:03:35;-16385.25;;;7.76;100.00
3590;BME280;1809;48.470;9.226;2024-02-26T02:06:02;-16383.56;;;7.70;100.00
3590;BME280;1809;48.470;9.226;2024-02-26T02:08:27;-16384.97;;;7.75;100.00
3590;BME280;1809;48.470;9.226;2024-02-26T02:10:53;-16385.69;;;7.77;100.00
3590;BME280;1809;48.470;9.226;2024-02-26T02:13:18;-16386.66;;;7.81;100.00
3590;BME280;1809;48.470;9.226;2024-02-26T02:15:43;-16384.84;;;7.74;100.00
3590;BME280;1809;48.470;9.226;2024-02-26T02:18:09;-16386.94;;;7.82;100.00
3590;BME280;1809;48.470;9.226;2024-02-26T02:20:34;-16385.13;;;7.75;100.00
3590;BME280;1809;48.470;9.226;2024-02-26T02:23:00;-16382.59;;;7.66;100.00
3590;BME280;1809;48.470;9.226;2024-02-26T02:25:25;-16383.00;;;7.68;100.00
3590;BME280;1809;48.470;9.226;2024-02-26T02:27:53;-16381.88;;;7.64;100.00
3590;BME280;1809;48.470;9.226;2024-02-26T02:30:18;-16379.63;;;7.55;100.00
3590;BME280;1809;48.470;9.226;2024-02-26T02:32:44;-16383.84;;;7.71;100.00
3590;BME280;1809;48.470;9.226;2024-02-26T02:35:10;-16385.25;;;7.76;100.00
3590;BME280;1809;48.470;9.226;2024-02-26T02:37:35;-16384.97;;;7.75;100.00
3590;BME280;1809;48.470;9.226;2024-02-26T02:40:02;-16382.44;;;7.66;100.00
3590;BME280;1809;48.470;9.226;2024-02-26T02:42:27;-16380.75;;;7.60;100.00
3590;BME280;1809;48.470;9.226;2024-02-26T02:44:53;-16380.75;;;7.60;100.00
3590;BME280;1809;48.470;9.226;2024-02-26T02:47:18;-16377.53;;;7.48;100.00
3590;BME280;1809;48.470;9.226;2024-02-26T02:49:43;-16377.09;;;7.46;100.00
3590;BME280;1809;48.470;9.226;2024-02-26T02:52:09;-16374.84;;;7.38;100.00
3590;BME280;1809;48.470;9.226;2024-02-26T02:54:34;-16373.88;;;7.35;100.00
3590;BME280;1809;48.470;9.226;2024-02-26T02:57:00;-16372.88;;;7.31;100.00
3590;BME280;1809;48.470;9.226;2024-02-26T02:59:26;-16372.75;;;7.31;100.00
3590;BME280;1809;48.470;9.226;2024-02-26T03:01:51;-16375.69;;;7.41;100.00
3590;BME280;1809;48.470;9.226;2024-02-26T03:04:17;-16373.88;;;7.35;100.00
3590;BME280;1809;48.470;9.226;2024-02-26T03:06:42;-16373.31;;;7.33;100.00
3590;BME280;1809;48.470;9.226;2024-02-26T03:09:08;-16377.66;;;7.48;100.00
3590;BME280;1809;48.470;9.226;2024-02-26T03:11:33;-16377.66;;;7.48;100.00
3590;BME280;1809;48.470;9.226;2024-02-26T03:13:58;-16375.13;;;7.39;100.00
3590;BME280;1809;48.470;9.226;2024-02-26T03:16:24;-16373.16;;;7.32;100.00
3590;BME280;1809;48.470;9.226;2024-02-26T03:18:49;-16374.00;;;7.35;100.00
3590;BME280;1809;48.470;9.226;2024-02-26T03:21:14;-16374.44;;;7.37;100.00
3590;BME280;1809;48.470;9.226;2024-02-26T03:23:39;-16374.28;;;7.36;100.00
3590;BME280;1809;48.470;9.226;2024-02-26T03:26:05;-16372.59;;;7.30;100.00
3590;BME280;1809;48.470;9.226;2024-02-26T03:28:30;-16373.72;;;7.34;100.00
3590;BME280;1809;48.470;9.226;2024-02-26T03:30:59;-16371.75;;;7.27;100.00
3590;BME280;1809;48.470;9.226;2024-02-26T03:33:25;-16371.19;;;7.25;100.00
3590;BME280;1809;48.470;9.226;2024-02-26T03:35:50;-16373.72;;;7.34;100.00
3590;BME280;1809;48.470;9.226;2024-02-26T03:38:15;-16370.63;;;7.23;100.00
3590;BME280;1809;48.470;9.226;2024-02-26T03:40:41;-16373.72;;;7.34;100.00
3590;BME280;1809;48.470;9.226;2024-02-26T03:43:06;-16374.16;;;7.36;100.00
3590;BME280;1809;48.470;9.226;2024-02-26T03:45:32;-16373.44;;;7.33;100.00
3590;BME280;1809;48.470;9.226;2024-02-26T03:47:58;-16370.63;;;7.23;100.00
3590;BME280;1809;48.470;9.226;2024-02-26T03:50:23;-16371.91;;;7.28;100.00
3590;BME280;1809;48.470;9.226;2024-02-26T03:52:49;-16370.91;;;7.24;100.00
3590;BME280;1809;48.470;9.226;2024-02-26T03:55:14;-16369.78;;;7.20;100.00
3590;BME280;1809;48.470;9.226;2024-02-26T03:57:39;-16371.75;;;7.27;100.00
3590;BME280;1809;48.470;9.226;2024-02-26T04:00:06;-16370.22;;;7.22;100.00
3590;BME280;1809;48.470;9.226;2024-02-26T04:02:31;-16375.28;;;7.40;100.00
3590;BME280;1809;48.470;9.226;2024-02-26T04:04:57;-16372.31;;;7.29;100.00
3590;BME280;1809;48.470;9.226;2024-02-26T04:07:22;-16370.50;;;7.23;100.00
3590;BME280;1809;48.470;9.226;2024-02-26T04:09:47;-16375.97;;;7.42;100.00
3590;BME280;1809;48.470;9.226;2024-02-26T04:12:13;-16376.81;;;7.45;100.00
3590;BME280;1809;48.470;9.226;2024-02-26T04:14:38;-16379.34;;;7.54;100.00
3590;BME280;1809;48.470;9.226;2024-02-26T04:17:04;-16380.19;;;7.57;100.00
3590;BME280;1809;48.470;9.226;2024-02-26T04:19:29;-16383.00;;;7.68;100.00
3590;BME280;1809;48.470;9.226;2024-02-26T04:21:55;-16382.72;;;7.67;100.00
3590;BME280;1809;48.470;9.226;2024-02-26T04:24:20;-16382.44;;;7.66;100.00
3590;BME280;1809;48.470;9.226;2024-02-26T04:26:45;-16382.59;;;7.66;100.00
3590;BME280;1809;48.470;9.226;2024-02-26T04:29:11;-16381.31;;;7.62;100.00
3590;BME280;1809;48.470;9.226;2024-02-26T04:31:37;-16379.50;;;7.55;100.00
3590;BME280;1809;48.470;9.226;2024-02-26T04:34:03;-16381.31;;;7.62;100.00
3590;BME280;1809;48.470;9.226;2024-02-26T04:36:28;-16383.72;;;7.70;100.00
3590;BME280;1809;48.470;9.226;2024-02-26T04:38:53;-16381.59;;;7.63;100.00
3590;BME280;1809;48.470;9.226;2024-02-26T04:41:22;-16382.03;;;7.64;100.00
3590;BME280;1809;48.470;9.226;2024-02-26T04:43:47;-16383.56;;;7.70;100.00
3590;BME280;1809;48.470;9.226;2024-02-26T04:46:12;-16383.72;;;7.70;100.00
3590;BME280;1809;48.470;9.226;2024-02-26T04:48:38;-16384.97;;;7.75;100.00
3590;BME280;1809;48.470;9.226;2024-02-26T04:51:04;-16381.59;;;7.63;100.00
3590;BME280;1809;48.470;9.226;2024-02-26T04:53:29;-16382.16;;;7.65;100.00
3590;BME280;1809;48.470;9.226;2024-02-26T04:55:55;-16380.47;;;7.58;100.00
3590;BME280;1809;48.470;9.226;2024-02-26T04:58:20;-16381.31;;;7.62;100.00
3590;BME280;1809;48.470;9.226;2024-02-26T05:00:46;-16383.28;;;7.69;100.00
3590;BME280;1809;48.470;9.226;2024-02-26T05:03:11;-16381.88;;;7.64;100.00
3590;BME280;1809;48.470;9.226;2024-02-26T05:05:42;-16382.31;;;7.65;100.00
3590;BME280;1809;48.470;9.226;2024-02-26T05:08:07;-16381.47;;;7.62;100.00
3590;BME280;1809;48.470;9.226;2024-02-26T05:10:33;-16381.88;;;7.64;100.00
3590;BME280;1809;48.470;9.226;2024-02-26T05:12:59;-16383.16;;;7.68;100.00
3590;BME280;1809;48.470;9.226;2024-02-26T05:15:24;-16383.00;;;7.68;100.00
3590;BME280;1809;48.470;9.226;2024-02-26T05:17:49;-16383.00;;;7.68;100.00
3590;BME280;1809;48.470;9.226;2024-02-26T05:20:15;-16381.75;;;7.63;100.00
3590;BME280;1809;48.470;9.226;2024-02-26T05:22:40;-16379.63;;;7.55;100.00
3590;BME280;1809;48.470;9.226;2024-02-26T05:25:06;-16377.66;;;7.48;100.00
3590;BME280;1809;48.470;9.226;2024-02-26T05:27:31;-16376.97;;;7.46;100.00
3590;BME280;1809;48.470;9.226;2024-02-26T05:29:57;-16374.84;;;7.38;100.00
3590;BME280;1809;48.470;9.226;2024-02-26T05:32:22;-16375.41;;;7.40;100.00
3590;BME280;1809;48.470;9.226;2024-02-26T05:34:47;-16375.13;;;7.39;100.00
3590;BME280;1809;48.470;9.226;2024-02-26T05:37:12;-16376.53;;;7.44;100.00
3590;BME280;1809;48.470;9.226;2024-02-26T05:39:38;-16376.69;;;7.45;100.00
3590;BME280;1809;48.470;9.226;2024-02-26T05:42:04;-16377.66;;;7.48;100.00
3590;BME280;1809;48.470;9.226;2024-02-26T05:44:29;-16378.22;;;7.50;100.00
3590;BME280;1809;48.470;9.226;2024-02-26T05:46:55;-16375.69;;;7.41;100.00
3590;BME280;1809;48.470;9.226;2024-02-26T05:49:21;-16372.47;;;7.30;100.00
3590;BME280;1809;48.470;9.226;2024-02-26T05:51:47;-16371.06;;;7.25;100.00
3590;BME280;1809;48.470;9.226;2024-02-26T05:54:12;-16373.03;;;7.32;100.00
3590;BME280;1809;48.470;9.226;2024-02-26T05:56:37;-16370.06;;;7.21;100.00
3590;BME280;1809;48.470;9.226;2024-02-26T05:59:03;-16371.19;;;7.25;100.00
3590;BME280;1809;48.470;9.226;2024-02-26T06:01:29;-16376.25;;;7.43;100.00
3590;BME280;1809;48.470;9.226;2024-02-26T06:03:54;-16374.44;;;7.37;100.00
3590;BME280;1809;48.470;9.226;2024-02-26T06:06:19;-16370.91;;;7.24;100.00
3590;BME280;1809;48.470;9.226;2024-02-26T06:08:47;-16369.50;;;7.19;100.00
3590;BME280;1809;48.470;9.226;2024-02-26T06:11:12;-16368.09;;;7.14;100.00
3590;BME280;1809;48.470;9.226;2024-02-26T06:13:37;-16367.53;;;7.12;100.00
3590;BME280;1809;48.470;9.226;2024-02-26T06:16:03;-16366.56;;;7.09;100.00
3590;BME280;1809;48.470;9.226;2024-02-26T06:18:28;-16365.28;;;7.04;100.00
3590;BME280;1809;48.470;9.226;2024-02-26T06:20:54;-16364.16;;;7.00;100.00
3590;BME280;1809;48.470;9.226;2024-02-26T06:23:19;-16364.44;;;7.01;100.00
3590;BME280;1809;48.470;9.226;2024-02-26T06:25:44;-16365.28;;;7.04;100.00
3590;BME280;1809;48.470;9.226;2024-02-26T06:28:10;-16364.72;;;7.02;100.00
3590;BME280;1809;48.470;9.226;2024-02-26T06:30:35;-16364.31;;;7.00;100.00
3590;BME280;1809;48.470;9.226;2024-02-26T06:33:01;-16364.03;;;6.99;100.00
3590;BME280;1809;48.470;9.226;2024-02-26T06:35:26;-16364.03;;;6.99;100.00
3590;BME280;1809;48.470;9.226;2024-02-26T06:37:52;-16363.88;;;6.99;100.00
3590;BME280;1809;48.470;9.226;2024-02-26T06:40:19;-16365.16;;;7.03;100.00
3590;BME280;1809;48.470;9.226;2024-02-26T06:42:44;-16365.56;;;7.05;100.00
3590;BME280;1809;48.470;9.226;2024-02-26T06:45:10;-16366.56;;;7.09;100.00
3590;BME280;1809;48.470;9.226;2024-02-26T06:47:35;-16367.97;;;7.14;100.00
3590;BME280;1809;48.470;9.226;2024-02-26T06:50:01;-16369.09;;;7.18;100.00
3590;BME280;1809;48.470;9.226;2024-02-26T06:52:26;-16370.50;;;7.23;100.00
3590;BME280;1809;48.470;9.226;2024-02-26T06:54:52;-16372.31;;;7.29;100.00
3590;BME280;1809;48.470;9.226;2024-02-26T06:57:19;-16377.25;;;7.47;100.00
3590;BME280;1809;48.470;9.226;2024-02-26T06:59:44;-16379.22;;;7.54;100.00
3590;BME280;1809;48.470;9.226;2024-02-26T07:02:15;-16382.03;;;7.64;100.00
3590;BME280;1809;48.470;9.226;2024-02-26T07:04:41;-16386.66;;;7.81;100.00
3590;BME280;1809;48.470;9.226;2024-02-26T07:07:07;-16389.47;;;7.91;100.00
3590;BME280;1809;48.470;9.226;2024-02-26T07:09:33;-16391.72;;;7.99;100.00
3590;BME280;1809;48.470;9.226;2024-02-26T07:11:58;-16393.00;;;8.03;100.00
3590;BME280;1809;48.470;9.226;2024-02-26T07:14:24;-16392.00;;;8.00;100.00
3590;BME280;1809;48.470;9.226;2024-02-26T07:16:51;-16391.88;;;7.99;100.00
3590;BME280;1809;48.470;9.226;2024-02-26T07:19:16;-16390.19;;;7.93;100.00
3590;BME280;1809;48.470;9.226;2024-02-26T07:21:42;-16388.63;;;7.88;100.00
3590;BME280;1809;48.470;9.226;2024-02-26T07:24:07;-16391.16;;;7.97;100.00
3590;BME280;1809;48.470;9.226;2024-02-26T07:26:33;-16389.47;;;7.91;100.00
3590;BME280;1809;48.470;9.226;2024-02-26T07:28:58;-16384.97;;;7.75;100.00
3590;BME280;1809;48.470;9.226;2024-02-26T07:31:25;-16388.63;;;7.88;100.00
3590;BME280;1809;48.470;9.226;2024-02-26T07:33:50;-16388.06;;;7.86;100.00
3590;BME280;1809;48.470;9.226;2024-02-26T07:36:15;-16388.22;;;7.86;100.00
3590;BME280;1809;48.470;9.226;2024-02-26T07:38:41;-16390.03;;;7.93;100.00
3590;BME280;1809;48.470;9.226;2024-02-26T07:41:06;-16390.31;;;7.94;100.00
3590;BME280;1809;48.470;9.226;2024-02-26T07:43:31;-16395.25;;;8.11;100.00
3590;BME280;1809;48.470;9.226;2024-02-26T07:45:57;-16394.97;;;8.10;100.00
3590;BME280;1809;48.470;9.226;2024-02-26T07:48:23;-16396.50;;;8.16;100.00
3590;BME280;1809;48.470;9.226;2024-02-26T07:50:48;-16396.66;;;8.17;100.00
3590;BME280;1809;48.470;9.226;2024-02-26T07:53:13;-16396.22;;;8.15;100.00
3590;BME280;1809;48.470;9.226;2024-02-26T07:55:39;-16397.63;;;8.20;100.00
3590;BME280;1809;48.470;9.226;2024-02-26T07:58:04;-16396.94;;;8.18;100.00
3590;BME280;1809;48.470;9.226;2024-02-26T08:00:29;-16398.91;;;8.25;100.00
3590;BME280;1809;48.470;9.226;2024-02-26T08:02:55;-16399.31;;;8.26;100.00
3590;BME280;1809;48.470;9.226;2024-02-26T08:05:21;-16404.09;;;8.43;100.00
3590;BME280;1809;48.470;9.226;2024-02-26T08:07:46;-16411.28;;;8.69;100.00
3590;BME280;1809;48.470;9.226;2024-02-26T08:10:12;-16413.38;;;8.77;100.00
3590;BME280;1809;48.470;9.226;2024-02-26T08:12:37;-16418.03;;;8.93;100.00
3590;BME280;1809;48.470;9.226;2024-02-26T08:15:03;-16428.56;;;9.31;100.00
3590;BME280;1809;48.470;9.226;2024-02-26T08:17:29;-16428.00;;;9.29;100.00
3590;BME280;1809;48.470;9.226;2024-02-26T08:19:55;-16426.31;;;9.23;100.00
3590;BME280;1809;48.470;9.226;2024-02-26T08:22:20;-16428.56;;;9.31;100.00
3590;BME280;1809;48.470;9.226;2024-02-26T08:24:45;-16431.38;;;9.41;100.00
3590;BME280;1809;48.470;9.226;2024-02-26T08:27:10;-16432.78;;;9.46;100.00
3590;BME280;1809;48.470;9.226;2024-02-26T08:29:36;-16434.47;;;9.52;100.00
3590;BME280;1809;48.470;9.226;2024-02-26T08:32:02;-16430.81;;;9.39;100.00
3590;BME280;1809;48.470;9.226;2024-02-26T08:34:27;-16431.78;;;9.43;100.00
3590;BME280;1809;48.470;9.226;2024-02-26T08:36:53;-16431.94;;;9.43;100.00
3590;BME280;1809;48.470;9.226;2024-02-26T08:39:18;-16438.38;;;9.66;100.00
3590;BME280;1809;48.470;9.226;2024-02-26T08:41:44;-16441.34;;;9.77;100.00
3590;BME280;1809;48.470;9.226;2024-02-26T08:44:10;-16445.13;;;9.91;100.00
3590;BME280;1809;48.470;9.226;2024-02-26T08:46:35;-16449.63;;;10.07;100.00
3590;BME280;1809;48.470;9.226;2024-02-26T08:49:00;-16452.72;;;10.18;100.00
3590;BME280;1809;48.470;9.226;2024-02-26T08:51:26;-16453.00;;;10.19;100.00
3590;BME280;1809;48.470;9.226;2024-02-26T08:53:51;-16452.72;;;10.18;100.00
3590;BME280;1809;48.470;9.226;2024-02-26T08:56:16;-16456.50;;;10.32;100.00
3590;BME280;1809;48.470;9.226;2024-02-26T08:58:43;-16454.97;;;10.26;100.00
3590;BME280;1809;48.470;9.226;2024-02-26T09:01:09;-16455.13;;;10.27;100.00
3590;BME280;1809;48.470;9.226;2024-02-26T09:03:34;-16458.63;;;10.39;100.00
3590;BME280;1809;48.470;9.226;2024-02-26T09:05:59;-16460.31;;;10.45;100.00
3590;BME280;1809;48.470;9.226;2024-02-26T09:08:25;-16460.16;;;10.45;100.00
3590;BME280;1809;48.470;9.226;2024-02-26T09:10:50;-16463.13;;;10.55;100.00
3590;BME280;1809;48.470;9.226;2024-02-26T09:13:15;-16465.38;;;10.63;100.00
3590;BME280;1809;48.470;9.226;2024-02-26T09:15:41;-16463.53;;;10.57;100.00
3590;BME280;1809;48.470;9.226;2024-02-26T09:18:06;-16466.06;;;10.66;100.00
3590;BME280;1809;48.470;9.226;2024-02-26T09:20:31;-16467.63;;;10.71;100.00
3590;BME280;1809;48.470;9.226;2024-02-26T09:22:57;-16462.84;;;10.54;100.00
3590;BME280;1809;48.470;9.226;2024-02-26T09:25:22;-16462.84;;;10.54;100.00
3590;BME280;1809;48.470;9.226;2024-02-26T09:27:47;-16460.88;;;10.47;100.00
3590;BME280;1809;48.470;9.226;2024-02-26T09:30:13;-16463.97;;;10.58;100.00
3590;BME280;1809;48.470;9.226;2024-02-26T09:32:39;-16470.69;;;10.83;100.00
3590;BME280;1809;48.470;9.226;2024-02-26T09:35:08;-16471.97;;;10.87;100.00
3590;BME280;1809;48.470;9.226;2024-02-26T09:37:33;-16474.91;;;10.98;100.00
3590;BME280;1809;48.470;9.226;2024-02-26T09:39:59;-16480.25;;;11.17;100.00
3590;BME280;1809;48.470;9.226;2024-02-26T09:42:26;-16485.03;;;11.34;100.00
3590;BME280;1809;48.470;9.226;2024-02-26T09:44:54;-16486.44;;;11.39;100.00
3590;BME280;1809;48.470;9.226;2024-02-26T09:47:21;-16495.56;;;11.72;100.00
3590;BME280;1809;48.470;9.226;2024-02-26T09:49:49;-16505.38;;;12.07;100.00
3590;BME280;1809;48.470;9.226;2024-02-26T09:52:16;-16511.41;;;12.29;100.00
3590;BME280;1809;48.470;9.226;2024-02-26T09:54:42;-16515.06;;;12.42;100.00
3590;BME280;1809;48.470;9.226;2024-02-26T09:57:12;-16519.84;;;12.59;100.00
3590;BME280;1809;48.470;9.226;2024-02-26T09:59:41;-16519.13;;;12.57;100.00
3590;BME280;1809;48.470;9.226;2024-02-26T10:02:14;-16517.31;;;12.50;100.00
3590;BME280;1809;48.470;9.226;2024-02-26T10:04:41;-16522.91;;;12.70;100.00
3590;BME280;1809;48.470;9.226;2024-02-26T10:07:11;-16525.88;;;12.81;100.00
3590;BME280;1809;48.470;9.226;2024-02-26T10:09:37;-16520.69;;;12.62;100.00
3590;BME280;1809;48.470;9.226;2024-02-26T10:12:04;-16519.84;;;12.59;100.00
3590;BME280;1809;48.470;9.226;2024-02-26T10:14:30;-16524.75;;;12.77;100.00
3590;BME280;1809;48.470;9.226;2024-02-26T10:16:55;-16538.50;;;13.26;100.00
3590;BME280;1809;48.470;9.226;2024-02-26T10:19:29;-16549.59;;;13.66;100.00
3590;BME280;1809;48.470;9.226;2024-02-26T10:21:59;-16556.31;;;13.90;100.00
3590;BME280;1809;48.470;9.226;2024-02-26T10:24:26;-16543.13;;;13.43;100.00
3590;BME280;1809;48.470;9.226;2024-02-26T10:26:52;-16544.25;;;13.47;100.00
3590;BME280;1809;48.470;9.226;2024-02-26T10:29:21;-16545.38;;;13.51;100.00
3590;BME280;1809;48.470;9.226;2024-02-26T10:31:47;-16547.63;;;13.59;100.00
3590;BME280;1809;48.470;9.226;2024-02-26T10:34:12;-16552.38;;;13.76;100.00
3590;BME280;1809;48.470;9.226;2024-02-26T10:36:38;-16539.34;;;13.29;100.00
3590;BME280;1809;48.470;9.226;2024-02-26T10:39:06;-16547.47;;;13.59;100.00
3590;BME280;1809;48.470;9.226;2024-02-26T10:41:33;-16552.66;;;13.77;100.00
3590;BME280;1809;48.470;9.226;2024-02-26T10:43:59;-16545.66;;;13.52;100.00
3590;BME280;1809;48.470;9.226;2024-02-26T10:46:25;-16546.22;;;13.54;100.00
3590;BME280;1809;48.470;9.226;2024-02-26T10:48:52;-16543.41;;;13.44;100.00
3590;BME280;1809;48.470;9.226;2024-02-26T10:51:21;-16543.69;;;13.45;100.00
3590;BME280;1809;48.470;9.226;2024-02-26T10:53:51;-16542.44;;;13.40;100.00
3590;BME280;1809;48.470;9.226;2024-02-26T10:56:24;-16542.56;;;13.41;100.00
3590;BME280;1809;48.470;9.226;2024-02-26T10:58:52;-16536.53;;;13.19;100.00
3590;BME280;1809;48.470;9.226;2024-02-26T11:01:18;-16533.03;;;13.07;100.00
3590;BME280;1809;48.470;9.226;2024-02-26T11:03:45;-16518.84;;;12.56;100.00
3590;BME280;1809;48.470;9.226;2024-02-26T11:06:12;-16519.84;;;12.59;100.00
3590;BME280;1809;48.470;9.226;2024-02-26T11:08:38;-16524.03;;;12.74;100.00
3590;BME280;1809;48.470;9.226;2024-02-26T11:11:04;-16517.59;;;12.51;100.00
3590;BME280;1809;48.470;9.226;2024-02-26T11:13:31;-16515.34;;;12.43;100.00
3590;BME280;1809;48.470;9.226;2024-02-26T11:15:56;-16520.69;;;12.62;100.00
3590;BME280;1809;48.470;9.226;2024-02-26T11:18:23;-16527.41;;;12.86;100.00
3590;BME280;1809;48.470;9.226;2024-02-26T11:20:49;-16526.84;;;12.84;100.00
3590;BME280;1809;48.470;9.226;2024-02-26T11:23:15;-16532.75;;;13.06;100.00
3590;BME280;1809;48.470;9.226;2024-02-26T11:25:41;-16540.06;;;13.32;100.00
3590;BME280;1809;48.470;9.226;2024-02-26T11:28:11;-16534.16;;;13.11;100.00
3590;BME280;1809;48.470;9.226;2024-02-26T11:30:40;-16531.91;;;13.03;100.00
3590;BME280;1809;48.470;9.226;2024-02-26T11:33:08;-16535.00;;;13.14;100.00
3590;BME280;1809;48.470;9.226;2024-02-26T11:35:36;-16540.06;;;13.32;100.00
3590;BME280;1809;48.470;9.226;2024-02-26T11:38:01;-16534.16;;;13.11;100.00
3590;BME280;1809;48.470;9.226;2024-02-26T11:40:28;-16536.53;;;13.19;100.00
3590;BME280;1809;48.470;9.226;2024-02-26T11:42:53;-16535.56;;;13.16;100.00
3590;BME280;1809;48.470;9.226;2024-02-26T11:48:03;-16538.94;;;13.28;100.00
3590;BME280;1809;48.470;9.226;2024-02-26T11:50:36;-16541.16;;;13.36;100.00
3590;BME280;1809;48.470;9.226;2024-02-26T11:53:26;-16545.09;;;13.50;100.00
3590;BME280;1809;48.470;9.226;2024-02-26T11:58:39;-16546.78;;;13.56;100.00
3590;BME280;1809;48.470;9.226;2024-02-26T12:01:05;-16552.66;;;13.77;100.00
3590;BME280;1809;48.470;9.226;2024-02-26T12:03:31;-16565.72;;;14.24;100.00
3590;BME280;1809;48.470;9.226;2024-02-26T12:05:56;-16561.78;;;14.10;100.00
3590;BME280;1809;48.470;9.226;2024-02-26T12:08:21;-16568.38;;;14.34;100.00
3590;BME280;1809;48.470;9.226;2024-02-26T12:10:48;-16572.31;;;14.48;100.00
3590;BME280;1809;48.470;9.226;2024-02-26T12:13:17;-16582.25;;;14.84;100.00
3590;BME280;1809;48.470;9.226;2024-02-26T12:15:55;-16587.16;;;15.01;100.00
3590;BME280;1809;48.470;9.226;2024-02-26T12:18:20;-16577.63;;;14.67;100.00
3590;BME280;1809;48.470;9.226;2024-02-26T12:20:58;-16576.94;;;14.65;100.00
3590;BME280;1809;48.470;9.226;2024-02-26T12:23:23;-16581.00;;;14.79;100.00
3590;BME280;1809;48.470;9.226;2024-02-26T12:25:48;-16582.69;;;14.85;100.00
3590;BME280;1809;48.470;9.226;2024-02-26T12:28:14;-16581.69;;;14.82;100.00
3590;BME280;1809;48.470;9.226;2024-02-26T12:30:40;-16579.03;;;14.72;100.00
3590;BME280;1809;48.470;9.226;2024-02-26T12:33:06;-16586.19;;;14.98;100.00
3590;BME280;1809;48.470;9.226;2024-02-26T12:35:34;-16586.88;;;15.00;100.00
3590;BME280;1809;48.470;9.226;2024-02-26T12:38:00;-16596.13;;;15.34;100.00
3590;BME280;1809;48.470;9.226;2024-02-26T12:40:26;-16594.59;;;15.28;100.00
3590;BME280;1809;48.470;9.226;2024-02-26T12:42:53;-16591.09;;;15.16;100.00
3590;BME280;1809;48.470;9.226;2024-02-26T12:45:20;-16598.22;;;15.41;100.00
3590;BME280;1809;48.470;9.226;2024-02-26T12:47:46;-16589.97;;;15.12;100.00
3590;BME280;1809;48.470;9.226;2024-02-26T12:50:12;-16581.56;;;14.81;100.00
3590;BME280;1809;48.470;9.226;2024-02-26T12:52:47;-16589.41;;;15.10;100.00
3590;BME280;1809;48.470;9.226;2024-02-26T12:55:20;-16591.38;;;15.17;100.00
3590;BME280;1809;48.470;9.226;2024-02-26T12:57:46;-16595.00;;;15.30;100.00
3590;BME280;1809;48.470;9.226;2024-02-26T13:00:16;-16596.69;;;15.36;100.00
3590;BME280;1809;48.470;9.226;2024-02-26T13:02:44;-16601.88;;;15.54;100.00
3590;BME280;1809;48.470;9.226;2024-02-26T13:05:11;-16596.84;;;15.36;100.00
3590;BME280;1809;48.470;9.226;2024-02-26T13:07:41;-16600.75;;;15.50;100.00